EXS2031 EFKT-EGLL
Flight info
| Callsign | EXS2031 |
|---|---|
| Flight time | 3h 19m |
| Altitude | 34000 |
| Route | AMULU DCT BARMI |
| Aircraft | B738/M-SDE2E3FGHIRWXY/LB1 |
Departure
| Time | 2026-04-18 00:47 |
|---|---|
| Airport | Kittilä International Airport (EFKT) |
Arrival
| Time | 2026-04-18 04:06 |
|---|---|
| Airport | London Heathrow Airport (EGLL) |
| Time | Latitude | Longitude | Altitude | Speed | Heading |
|---|---|---|---|---|---|
| 2026-04-18 00:03 | 67.69715 | 24.85613 | 640 ft | 0 kts | 76° |
| 2026-04-18 00:36 | 67.69714 | 24.85599 | 640 ft | 2 kts | 78° |
| 2026-04-18 00:36 | 67.69711 | 24.85548 | 641 ft | 3 kts | 88° |
| 2026-04-18 00:37 | 67.69711 | 24.85495 | 641 ft | 3 kts | 101° |
| 2026-04-18 00:37 | 67.69717 | 24.85446 | 642 ft | 3 kts | 122° |
| 2026-04-18 00:37 | 67.69729 | 24.85411 | 641 ft | 3 kts | 158° |
| 2026-04-18 00:37 | 67.69735 | 24.85405 | 643 ft | 0 kts | 168° |
| 2026-04-18 00:42 | 67.69717 | 24.85415 | 640 ft | 6 kts | 169° |
| 2026-04-18 00:43 | 67.69658 | 24.85448 | 640 ft | 11 kts | 167° |
| 2026-04-18 00:43 | 67.69597 | 24.85487 | 641 ft | 6 kts | 167° |
| 2026-04-18 00:43 | 67.69540 | 24.85456 | 641 ft | 11 kts | 223° |
| 2026-04-18 00:43 | 67.69516 | 24.85216 | 641 ft | 16 kts | 257° |
| 2026-04-18 00:44 | 67.69426 | 24.85125 | 643 ft | 17 kts | 163° |
| 2026-04-18 00:44 | 67.69297 | 24.85211 | 644 ft | 22 kts | 166° |
| 2026-04-18 00:44 | 67.69136 | 24.85326 | 641 ft | 20 kts | 156° |
| 2026-04-18 00:44 | 67.69060 | 24.85478 | 642 ft | 6 kts | 170° |
| 2026-04-18 00:45 | 67.69032 | 24.85375 | 641 ft | 10 kts | 296° |
| 2026-04-18 00:45 | 67.69099 | 24.85342 | 642 ft | 0 kts | 345° |
| 2026-04-18 00:46 | 67.69109 | 24.85335 | 642 ft | 7 kts | 345° |
| 2026-04-18 00:46 | 67.69316 | 24.85200 | 644 ft | 64 kts | 346° |
| 2026-04-18 00:47 | 67.69959 | 24.84782 | 640 ft | 127 kts | 346° |
| 2026-04-18 00:47 | 67.70996 | 24.84122 | 685 ft | 173 kts | 346° |
| 2026-04-18 00:47 | 67.72102 | 24.83328 | 1585 ft | 159 kts | 343° |
| 2026-04-18 00:47 | 67.73211 | 24.82503 | 2102 ft | 177 kts | 348° |
| 2026-04-18 00:48 | 67.74440 | 24.81223 | 2363 ft | 206 kts | 318° |
| 2026-04-18 00:48 | 67.75105 | 24.77798 | 2582 ft | 225 kts | 273° |
| 2026-04-18 00:48 | 67.74664 | 24.73835 | 2960 ft | 233 kts | 230° |
| 2026-04-18 00:49 | 67.71817 | 24.69359 | 3979 ft | 249 kts | 207° |
| 2026-04-18 00:49 | 67.70286 | 24.67147 | 4677 ft | 252 kts | 209° |
| 2026-04-18 00:49 | 67.68753 | 24.64825 | 5381 ft | 256 kts | 210° |
| 2026-04-18 00:49 | 67.67124 | 24.62752 | 5917 ft | 266 kts | 200° |
| 2026-04-18 00:50 | 67.65364 | 24.61186 | 6475 ft | 274 kts | 198° |
| 2026-04-18 00:50 | 67.63524 | 24.59668 | 7122 ft | 278 kts | 197° |
| 2026-04-18 00:50 | 67.61665 | 24.58132 | 7763 ft | 282 kts | 198° |
| 2026-04-18 00:50 | 67.59778 | 24.56549 | 8413 ft | 286 kts | 198° |
| 2026-04-18 00:51 | 67.57869 | 24.54927 | 9058 ft | 290 kts | 198° |
| 2026-04-18 00:51 | 67.55936 | 24.53269 | 9704 ft | 294 kts | 198° |
| 2026-04-18 00:51 | 67.53978 | 24.51581 | 10345 ft | 298 kts | 198° |
| 2026-04-18 00:51 | 67.51983 | 24.49857 | 10751 ft | 310 kts | 198° |
| 2026-04-18 00:52 | 67.49865 | 24.48025 | 10924 ft | 330 kts | 198° |
| 2026-04-18 00:52 | 67.47624 | 24.46088 | 11074 ft | 349 kts | 198° |
| 2026-04-18 00:52 | 67.45291 | 24.44072 | 11292 ft | 364 kts | 198° |
| 2026-04-18 00:52 | 67.42863 | 24.41979 | 11746 ft | 371 kts | 198° |
| 2026-04-18 00:53 | 67.40366 | 24.39833 | 12327 ft | 374 kts | 198° |
| 2026-04-18 00:53 | 67.37977 | 24.37278 | 12848 ft | 378 kts | 213° |
| 2026-04-18 00:53 | 67.36007 | 24.32779 | 13395 ft | 379 kts | 228° |
| 2026-04-18 00:53 | 67.34178 | 24.27782 | 13950 ft | 384 kts | 228° |
| 2026-04-18 00:54 | 67.32332 | 24.22731 | 14438 ft | 388 kts | 228° |
| 2026-04-18 00:54 | 67.30463 | 24.17632 | 14932 ft | 392 kts | 228° |
| 2026-04-18 00:54 | 67.28575 | 24.12513 | 15430 ft | 394 kts | 228° |
| 2026-04-18 00:54 | 67.26667 | 24.07368 | 15921 ft | 398 kts | 228° |
| 2026-04-18 00:55 | 67.24734 | 24.02185 | 16400 ft | 401 kts | 227° |
| 2026-04-18 00:55 | 67.22787 | 23.96988 | 16875 ft | 405 kts | 227° |
| 2026-04-18 00:55 | 67.20814 | 23.91740 | 17331 ft | 408 kts | 227° |
| 2026-04-18 00:55 | 67.18852 | 23.86539 | 17808 ft | 411 kts | 227° |
| 2026-04-18 00:56 | 67.16842 | 23.81226 | 18274 ft | 415 kts | 227° |
| 2026-04-18 00:56 | 67.14823 | 23.75905 | 18732 ft | 418 kts | 227° |
| 2026-04-18 00:56 | 67.12780 | 23.70532 | 19119 ft | 421 kts | 227° |
| 2026-04-18 00:56 | 67.10725 | 23.65143 | 19509 ft | 423 kts | 227° |
| 2026-04-18 00:57 | 67.08660 | 23.59742 | 19971 ft | 425 kts | 227° |
| 2026-04-18 00:57 | 67.06580 | 23.54318 | 20362 ft | 428 kts | 227° |
| 2026-04-18 00:57 | 67.04484 | 23.48861 | 20724 ft | 431 kts | 227° |
| 2026-04-18 00:57 | 67.02368 | 23.43369 | 21087 ft | 434 kts | 227° |
| 2026-04-18 00:58 | 67.00240 | 23.37860 | 21463 ft | 437 kts | 227° |
| 2026-04-18 00:58 | 66.98092 | 23.32315 | 21842 ft | 439 kts | 227° |
| 2026-04-18 00:58 | 66.95931 | 23.26752 | 22206 ft | 442 kts | 227° |
| 2026-04-18 00:58 | 66.93757 | 23.21168 | 22567 ft | 445 kts | 227° |
| 2026-04-18 00:59 | 66.91570 | 23.15566 | 22923 ft | 448 kts | 227° |
| 2026-04-18 00:59 | 66.89389 | 23.09995 | 23256 ft | 450 kts | 227° |
| 2026-04-18 00:59 | 66.87171 | 23.04345 | 23591 ft | 453 kts | 227° |
| 2026-04-18 00:59 | 66.84937 | 22.98671 | 23932 ft | 455 kts | 227° |
| 2026-04-18 01:00 | 66.82689 | 22.92975 | 24248 ft | 457 kts | 226° |
| 2026-04-18 01:00 | 66.80430 | 22.87269 | 24497 ft | 458 kts | 226° |
| 2026-04-18 01:00 | 66.78168 | 22.81571 | 24825 ft | 459 kts | 226° |
| 2026-04-18 01:00 | 66.75891 | 22.75850 | 25094 ft | 461 kts | 226° |
| 2026-04-18 01:01 | 66.73604 | 22.70120 | 25343 ft | 464 kts | 226° |
| 2026-04-18 01:01 | 66.71305 | 22.64375 | 25604 ft | 466 kts | 226° |
| 2026-04-18 01:01 | 66.68992 | 22.58611 | 25865 ft | 468 kts | 226° |
| 2026-04-18 01:01 | 66.66665 | 22.52831 | 26119 ft | 469 kts | 226° |
| 2026-04-18 01:02 | 66.64360 | 22.47119 | 26357 ft | 471 kts | 226° |
| 2026-04-18 01:02 | 66.62016 | 22.41327 | 26587 ft | 473 kts | 226° |
| 2026-04-18 01:02 | 66.59657 | 22.35514 | 26840 ft | 475 kts | 225° |
| 2026-04-18 01:02 | 66.57293 | 22.29704 | 27170 ft | 474 kts | 225° |
| 2026-04-18 01:03 | 66.54929 | 22.23913 | 27405 ft | 476 kts | 225° |
| 2026-04-18 01:03 | 66.52550 | 22.18099 | 27604 ft | 478 kts | 225° |
| 2026-04-18 01:03 | 66.50157 | 22.12267 | 27805 ft | 481 kts | 225° |
| 2026-04-18 01:03 | 66.47756 | 22.06433 | 28035 ft | 482 kts | 225° |
| 2026-04-18 01:04 | 66.45339 | 22.00578 | 28260 ft | 483 kts | 225° |
| 2026-04-18 01:04 | 66.42919 | 21.94731 | 28468 ft | 485 kts | 225° |
| 2026-04-18 01:04 | 66.40480 | 21.88857 | 28668 ft | 487 kts | 225° |
| 2026-04-18 01:04 | 66.38035 | 21.82983 | 28850 ft | 488 kts | 225° |
| 2026-04-18 01:05 | 66.35583 | 21.77110 | 29057 ft | 490 kts | 225° |
| 2026-04-18 01:05 | 66.33119 | 21.71224 | 29295 ft | 490 kts | 225° |
| 2026-04-18 01:05 | 66.30662 | 21.65374 | 29605 ft | 489 kts | 225° |
| 2026-04-18 01:05 | 66.28208 | 21.59547 | 29924 ft | 488 kts | 225° |
| 2026-04-18 01:06 | 66.25754 | 21.53735 | 30179 ft | 488 kts | 225° |
| 2026-04-18 01:06 | 66.23320 | 21.47989 | 30408 ft | 488 kts | 224° |
| 2026-04-18 01:06 | 66.20850 | 21.42170 | 30650 ft | 488 kts | 224° |
| 2026-04-18 01:06 | 66.18393 | 21.36401 | 30906 ft | 487 kts | 224° |
| 2026-04-18 01:07 | 66.15938 | 21.30654 | 31155 ft | 486 kts | 224° |
| 2026-04-18 01:07 | 66.13479 | 21.24911 | 31381 ft | 485 kts | 225° |
| 2026-04-18 01:07 | 66.11023 | 21.19193 | 31599 ft | 485 kts | 225° |
| 2026-04-18 01:07 | 66.08575 | 21.13508 | 31834 ft | 483 kts | 224° |
| 2026-04-18 01:08 | 66.06140 | 21.07872 | 32273 ft | 477 kts | 224° |
| 2026-04-18 01:08 | 66.03725 | 21.02296 | 32554 ft | 475 kts | 224° |
| 2026-04-18 01:08 | 66.01304 | 20.96721 | 32740 ft | 476 kts | 224° |
| 2026-04-18 01:08 | 65.98887 | 20.91168 | 32888 ft | 478 kts | 224° |
| 2026-04-18 01:09 | 65.96476 | 20.85645 | 33050 ft | 478 kts | 224° |
| 2026-04-18 01:09 | 65.94045 | 20.80090 | 33283 ft | 477 kts | 224° |
| 2026-04-18 01:09 | 65.91611 | 20.74547 | 33525 ft | 476 kts | 224° |
| 2026-04-18 01:09 | 65.89182 | 20.69029 | 33742 ft | 476 kts | 224° |
| 2026-04-18 01:10 | 65.86755 | 20.63530 | 33921 ft | 476 kts | 224° |
| 2026-04-18 01:10 | 65.84326 | 20.58040 | 34075 ft | 476 kts | 224° |
| 2026-04-18 01:10 | 65.81902 | 20.52578 | 34353 ft | 473 kts | 224° |
| 2026-04-18 01:10 | 65.79489 | 20.47156 | 34570 ft | 472 kts | 224° |
| 2026-04-18 01:11 | 65.77074 | 20.41745 | 34749 ft | 471 kts | 224° |
| 2026-04-18 01:11 | 65.74662 | 20.36352 | 34925 ft | 470 kts | 224° |
| 2026-04-18 01:11 | 65.72253 | 20.30981 | 35096 ft | 469 kts | 224° |
| 2026-04-18 01:11 | 65.69844 | 20.25625 | 35260 ft | 469 kts | 224° |
| 2026-04-18 01:12 | 65.67462 | 20.20342 | 35400 ft | 469 kts | 224° |
| 2026-04-18 01:12 | 65.65019 | 20.14936 | 35581 ft | 469 kts | 223° |
| 2026-04-18 01:12 | 65.62639 | 20.09687 | 35726 ft | 468 kts | 223° |
| 2026-04-18 01:12 | 65.60224 | 20.04372 | 35870 ft | 468 kts | 223° |
| 2026-04-18 01:13 | 65.57817 | 19.99089 | 35999 ft | 468 kts | 223° |
| 2026-04-18 01:13 | 65.55413 | 19.93827 | 36277 ft | 464 kts | 223° |
| 2026-04-18 01:13 | 65.50609 | 19.83352 | 36380 ft | 466 kts | 223° |
| 2026-04-18 01:14 | 65.45782 | 19.72880 | 36365 ft | 465 kts | 223° |
| 2026-04-18 01:14 | 65.41008 | 19.62580 | 36339 ft | 462 kts | 223° |
| 2026-04-18 01:15 | 65.36217 | 19.52293 | 36349 ft | 460 kts | 222° |
| 2026-04-18 01:15 | 65.31453 | 19.42116 | 36358 ft | 458 kts | 222° |
| 2026-04-18 01:16 | 65.27507 | 19.33727 | 36364 ft | 456 kts | 222° |
| 2026-04-18 01:16 | 65.22760 | 19.23679 | 36364 ft | 455 kts | 222° |
| 2026-04-18 01:17 | 65.17257 | 19.12093 | 36360 ft | 453 kts | 222° |
| 2026-04-18 01:17 | 65.13289 | 19.03782 | 36357 ft | 453 kts | 222° |
| 2026-04-18 01:18 | 65.08554 | 18.93907 | 36357 ft | 454 kts | 221° |
| 2026-04-18 01:18 | 65.03821 | 18.84087 | 36366 ft | 454 kts | 221° |
| 2026-04-18 01:19 | 64.99052 | 18.74238 | 36360 ft | 455 kts | 221° |
| 2026-04-18 01:19 | 64.94266 | 18.64404 | 36356 ft | 456 kts | 221° |
| 2026-04-18 01:20 | 64.89461 | 18.54581 | 36351 ft | 457 kts | 221° |
| 2026-04-18 01:20 | 64.84681 | 18.44856 | 36347 ft | 457 kts | 221° |
| 2026-04-18 01:21 | 64.79853 | 18.35081 | 36349 ft | 458 kts | 221° |
| 2026-04-18 01:21 | 64.75021 | 18.25345 | 36348 ft | 458 kts | 221° |
| 2026-04-18 01:22 | 64.70176 | 18.15632 | 36351 ft | 458 kts | 221° |
| 2026-04-18 01:22 | 64.65329 | 18.05962 | 36348 ft | 458 kts | 221° |
| 2026-04-18 01:23 | 64.60511 | 17.96395 | 36345 ft | 457 kts | 220° |
| 2026-04-18 01:23 | 64.55671 | 17.86833 | 36345 ft | 456 kts | 220° |
| 2026-04-18 01:24 | 64.50828 | 17.77310 | 36347 ft | 455 kts | 220° |
| 2026-04-18 01:24 | 64.45990 | 17.67841 | 36343 ft | 454 kts | 220° |
| 2026-04-18 01:25 | 64.41162 | 17.58439 | 36345 ft | 453 kts | 220° |
| 2026-04-18 01:25 | 64.36335 | 17.49083 | 36347 ft | 452 kts | 220° |
| 2026-04-18 01:26 | 64.31509 | 17.39773 | 36338 ft | 452 kts | 220° |
| 2026-04-18 01:26 | 64.26675 | 17.30491 | 36340 ft | 452 kts | 220° |
| 2026-04-18 01:27 | 64.21840 | 17.21251 | 36338 ft | 451 kts | 220° |
| 2026-04-18 01:27 | 64.17025 | 17.12092 | 36341 ft | 451 kts | 220° |
| 2026-04-18 01:28 | 64.12178 | 17.02915 | 36340 ft | 452 kts | 220° |
| 2026-04-18 01:28 | 64.07325 | 16.93771 | 36342 ft | 452 kts | 220° |
| 2026-04-18 01:29 | 64.02469 | 16.84663 | 36330 ft | 452 kts | 220° |
| 2026-04-18 01:29 | 63.97623 | 16.75616 | 36331 ft | 452 kts | 221° |
| 2026-04-18 01:30 | 63.92745 | 16.66551 | 36330 ft | 452 kts | 221° |
| 2026-04-18 01:30 | 63.87860 | 16.57515 | 36320 ft | 452 kts | 220° |
| 2026-04-18 01:31 | 63.82975 | 16.48521 | 36332 ft | 452 kts | 220° |
| 2026-04-18 01:31 | 63.78090 | 16.39567 | 36334 ft | 451 kts | 220° |
| 2026-04-18 01:32 | 63.73237 | 16.30714 | 36316 ft | 451 kts | 220° |
| 2026-04-18 01:32 | 63.68343 | 16.21825 | 36312 ft | 451 kts | 220° |
| 2026-04-18 01:33 | 63.63449 | 16.12978 | 36307 ft | 450 kts | 220° |
| 2026-04-18 01:33 | 63.58551 | 16.04165 | 36311 ft | 450 kts | 220° |
| 2026-04-18 01:34 | 63.53651 | 15.95387 | 36314 ft | 450 kts | 220° |
| 2026-04-18 01:34 | 63.48792 | 15.86720 | 36312 ft | 449 kts | 220° |
| 2026-04-18 01:35 | 63.43899 | 15.78036 | 36319 ft | 449 kts | 220° |
| 2026-04-18 01:35 | 63.39006 | 15.69388 | 36305 ft | 448 kts | 220° |
| 2026-04-18 01:36 | 63.34109 | 15.60771 | 36305 ft | 448 kts | 220° |
| 2026-04-18 01:36 | 63.29211 | 15.52191 | 36304 ft | 447 kts | 220° |
| 2026-04-18 01:37 | 63.24312 | 15.43648 | 36303 ft | 447 kts | 220° |
| 2026-04-18 01:37 | 63.19411 | 15.35138 | 36301 ft | 446 kts | 220° |
| 2026-04-18 01:38 | 63.14517 | 15.26679 | 36301 ft | 446 kts | 220° |
| 2026-04-18 01:38 | 63.09651 | 15.18304 | 36301 ft | 445 kts | 220° |
| 2026-04-18 01:39 | 63.04765 | 15.09933 | 36293 ft | 444 kts | 220° |
| 2026-04-18 01:39 | 62.99895 | 15.01625 | 36291 ft | 442 kts | 220° |
| 2026-04-18 01:40 | 62.95028 | 14.93357 | 36262 ft | 441 kts | 219° |
| 2026-04-18 01:40 | 62.90179 | 14.85156 | 36289 ft | 439 kts | 219° |
| 2026-04-18 01:41 | 62.85334 | 14.76997 | 36295 ft | 438 kts | 219° |
| 2026-04-18 01:41 | 62.80532 | 14.68942 | 36293 ft | 437 kts | 219° |
| 2026-04-18 01:42 | 62.75690 | 14.60858 | 36296 ft | 436 kts | 219° |
| 2026-04-18 01:42 | 62.70860 | 14.52826 | 36304 ft | 436 kts | 219° |
| 2026-04-18 01:43 | 62.66059 | 14.44876 | 36297 ft | 436 kts | 219° |
| 2026-04-18 01:43 | 62.61230 | 14.36913 | 36297 ft | 435 kts | 219° |
| 2026-04-18 01:44 | 62.56395 | 14.28974 | 36299 ft | 435 kts | 219° |
| 2026-04-18 01:44 | 62.51561 | 14.21068 | 36299 ft | 435 kts | 219° |
| 2026-04-18 01:45 | 62.46720 | 14.13185 | 36291 ft | 435 kts | 219° |
| 2026-04-18 01:45 | 62.41903 | 14.05373 | 36282 ft | 435 kts | 220° |
| 2026-04-18 01:46 | 62.37055 | 13.97543 | 36296 ft | 435 kts | 219° |
| 2026-04-18 01:46 | 62.32194 | 13.89726 | 36297 ft | 435 kts | 219° |
| 2026-04-18 01:47 | 62.27332 | 13.81938 | 36300 ft | 436 kts | 219° |
| 2026-04-18 01:47 | 62.22494 | 13.74221 | 36292 ft | 436 kts | 219° |
| 2026-04-18 01:48 | 62.17623 | 13.66483 | 36289 ft | 436 kts | 219° |
| 2026-04-18 01:48 | 62.12737 | 13.58753 | 36287 ft | 436 kts | 219° |
| 2026-04-18 01:49 | 62.07853 | 13.51057 | 36284 ft | 436 kts | 219° |
| 2026-04-18 01:49 | 62.02967 | 13.43392 | 36293 ft | 435 kts | 219° |
| 2026-04-18 01:50 | 61.98079 | 13.35752 | 36292 ft | 435 kts | 219° |
| 2026-04-18 01:50 | 61.93217 | 13.28184 | 36293 ft | 435 kts | 219° |
| 2026-04-18 01:51 | 61.88319 | 13.20592 | 36273 ft | 435 kts | 219° |
| 2026-04-18 01:51 | 61.83424 | 13.13035 | 36282 ft | 435 kts | 219° |
| 2026-04-18 01:52 | 61.78536 | 13.05519 | 36286 ft | 434 kts | 219° |
| 2026-04-18 01:52 | 61.73672 | 12.98070 | 36283 ft | 434 kts | 219° |
| 2026-04-18 01:53 | 61.68782 | 12.90610 | 36285 ft | 433 kts | 219° |
| 2026-04-18 01:54 | 61.61452 | 12.79484 | 36278 ft | 432 kts | 218° |
| 2026-04-18 01:54 | 61.56581 | 12.72127 | 36274 ft | 431 kts | 218° |
| 2026-04-18 01:55 | 61.51712 | 12.64803 | 36277 ft | 429 kts | 218° |
| 2026-04-18 01:55 | 61.46860 | 12.57532 | 36279 ft | 428 kts | 218° |
| 2026-04-18 01:56 | 61.42049 | 12.50350 | 36272 ft | 427 kts | 218° |
| 2026-04-18 01:56 | 61.37209 | 12.43154 | 36272 ft | 426 kts | 218° |
| 2026-04-18 01:57 | 61.32379 | 12.35999 | 36263 ft | 425 kts | 218° |
| 2026-04-18 01:57 | 61.27555 | 12.28882 | 36276 ft | 425 kts | 218° |
| 2026-04-18 01:58 | 61.22726 | 12.21785 | 36270 ft | 425 kts | 218° |
| 2026-04-18 01:58 | 61.17891 | 12.14705 | 36270 ft | 425 kts | 218° |
| 2026-04-18 01:59 | 61.13074 | 12.07679 | 36270 ft | 426 kts | 218° |
| 2026-04-18 01:59 | 61.08222 | 12.00629 | 36274 ft | 426 kts | 217° |
| 2026-04-18 02:00 | 61.03354 | 11.93583 | 36261 ft | 427 kts | 217° |
| 2026-04-18 02:00 | 60.98504 | 11.86590 | 36262 ft | 428 kts | 217° |
| 2026-04-18 02:01 | 60.93615 | 11.79567 | 36263 ft | 429 kts | 217° |
| 2026-04-18 02:01 | 60.88711 | 11.72557 | 36277 ft | 429 kts | 217° |
| 2026-04-18 02:02 | 60.83797 | 11.65554 | 36256 ft | 429 kts | 217° |
| 2026-04-18 02:02 | 60.78898 | 11.58591 | 36251 ft | 427 kts | 217° |
| 2026-04-18 02:03 | 60.74047 | 11.51726 | 36246 ft | 425 kts | 217° |
| 2026-04-18 02:03 | 60.69193 | 11.44884 | 36246 ft | 423 kts | 217° |
| 2026-04-18 02:04 | 60.64354 | 11.38090 | 36246 ft | 421 kts | 217° |
| 2026-04-18 02:04 | 60.60351 | 11.32487 | 36251 ft | 419 kts | 217° |
| 2026-04-18 02:05 | 60.55545 | 11.25784 | 36241 ft | 418 kts | 217° |
| 2026-04-18 02:05 | 60.50755 | 11.19127 | 36240 ft | 417 kts | 217° |
| 2026-04-18 02:06 | 60.45965 | 11.12494 | 36242 ft | 416 kts | 217° |
| 2026-04-18 02:06 | 60.41179 | 11.05891 | 36245 ft | 416 kts | 217° |
| 2026-04-18 02:07 | 60.36390 | 10.99308 | 36238 ft | 416 kts | 217° |
| 2026-04-18 02:07 | 60.31622 | 10.92778 | 36247 ft | 416 kts | 216° |
| 2026-04-18 02:08 | 60.26814 | 10.86216 | 36247 ft | 417 kts | 217° |
| 2026-04-18 02:08 | 60.21999 | 10.79668 | 36246 ft | 418 kts | 216° |
| 2026-04-18 02:09 | 60.17171 | 10.73126 | 36246 ft | 418 kts | 216° |
| 2026-04-18 02:09 | 60.12336 | 10.66604 | 36247 ft | 418 kts | 216° |
| 2026-04-18 02:10 | 60.07544 | 10.60157 | 36241 ft | 417 kts | 216° |
| 2026-04-18 02:10 | 60.02724 | 10.53695 | 36240 ft | 416 kts | 216° |
| 2026-04-18 02:11 | 59.97923 | 10.47282 | 36241 ft | 413 kts | 216° |
| 2026-04-18 02:11 | 59.93144 | 10.40921 | 36244 ft | 411 kts | 216° |
| 2026-04-18 02:12 | 59.88389 | 10.34615 | 36245 ft | 409 kts | 216° |
| 2026-04-18 02:12 | 59.83681 | 10.28392 | 36238 ft | 408 kts | 216° |
| 2026-04-18 02:13 | 59.78947 | 10.22157 | 36244 ft | 407 kts | 216° |
| 2026-04-18 02:13 | 59.74212 | 10.15942 | 36248 ft | 406 kts | 216° |
| 2026-04-18 02:14 | 59.69493 | 10.09770 | 36241 ft | 406 kts | 216° |
| 2026-04-18 02:14 | 59.64807 | 10.03661 | 36243 ft | 406 kts | 216° |
| 2026-04-18 02:15 | 59.60078 | 9.97517 | 36237 ft | 407 kts | 216° |
| 2026-04-18 02:15 | 59.55340 | 9.91383 | 36240 ft | 407 kts | 216° |
| 2026-04-18 02:16 | 59.50598 | 9.85263 | 36245 ft | 408 kts | 216° |
| 2026-04-18 02:16 | 59.45843 | 9.79150 | 36235 ft | 408 kts | 215° |
| 2026-04-18 02:17 | 59.41093 | 9.73063 | 36267 ft | 408 kts | 215° |
| 2026-04-18 02:17 | 59.36371 | 9.67032 | 36243 ft | 407 kts | 215° |
| 2026-04-18 02:18 | 59.31620 | 9.60986 | 36236 ft | 406 kts | 215° |
| 2026-04-18 02:18 | 59.26887 | 9.54982 | 36232 ft | 405 kts | 215° |
| 2026-04-18 02:19 | 59.22173 | 9.49022 | 36232 ft | 403 kts | 215° |
| 2026-04-18 02:19 | 59.17472 | 9.43099 | 36236 ft | 401 kts | 215° |
| 2026-04-18 02:20 | 59.12785 | 9.37212 | 36229 ft | 400 kts | 214° |
| 2026-04-18 02:20 | 59.08108 | 9.31357 | 36238 ft | 399 kts | 214° |
| 2026-04-18 02:21 | 59.03436 | 9.25528 | 36239 ft | 399 kts | 214° |
| 2026-04-18 02:21 | 58.98754 | 9.19704 | 36224 ft | 400 kts | 214° |
| 2026-04-18 02:22 | 58.94071 | 9.13900 | 36235 ft | 400 kts | 214° |
| 2026-04-18 02:22 | 58.89411 | 9.08141 | 36233 ft | 401 kts | 214° |
| 2026-04-18 02:23 | 58.84701 | 9.02342 | 36227 ft | 401 kts | 214° |
| 2026-04-18 02:23 | 58.79974 | 8.96541 | 36234 ft | 402 kts | 214° |
| 2026-04-18 02:24 | 58.75249 | 8.90759 | 36234 ft | 403 kts | 214° |
| 2026-04-18 02:24 | 58.70513 | 8.84984 | 36222 ft | 403 kts | 214° |
| 2026-04-18 02:25 | 58.65774 | 8.79228 | 36230 ft | 404 kts | 214° |
| 2026-04-18 02:25 | 58.61023 | 8.73472 | 36230 ft | 403 kts | 214° |
| 2026-04-18 02:26 | 58.56293 | 8.67758 | 36221 ft | 402 kts | 214° |
| 2026-04-18 02:26 | 58.51565 | 8.62067 | 36222 ft | 400 kts | 213° |
| 2026-04-18 02:27 | 58.46853 | 8.56413 | 36218 ft | 399 kts | 213° |
| 2026-04-18 02:27 | 58.42186 | 8.50831 | 36216 ft | 398 kts | 213° |
| 2026-04-18 02:28 | 58.37495 | 8.45241 | 36217 ft | 397 kts | 213° |
| 2026-04-18 02:28 | 58.32820 | 8.39685 | 36219 ft | 396 kts | 213° |
| 2026-04-18 02:29 | 58.28136 | 8.34134 | 36211 ft | 396 kts | 213° |
| 2026-04-18 02:29 | 58.23446 | 8.28595 | 36214 ft | 397 kts | 213° |
| 2026-04-18 02:30 | 58.18785 | 8.23108 | 36199 ft | 397 kts | 213° |
| 2026-04-18 02:30 | 58.14085 | 8.17591 | 36210 ft | 398 kts | 213° |
| 2026-04-18 02:31 | 58.09367 | 8.12072 | 36218 ft | 399 kts | 213° |
| 2026-04-18 02:31 | 58.04640 | 8.06560 | 36210 ft | 400 kts | 213° |
| 2026-04-18 02:32 | 57.99899 | 8.01048 | 36205 ft | 400 kts | 213° |
| 2026-04-18 02:32 | 57.95148 | 7.95543 | 36225 ft | 401 kts | 213° |
| 2026-04-18 02:33 | 57.90391 | 7.90047 | 36206 ft | 401 kts | 213° |
| 2026-04-18 02:33 | 57.85661 | 7.84601 | 36192 ft | 401 kts | 213° |
| 2026-04-18 02:34 | 57.80902 | 7.79139 | 36191 ft | 400 kts | 213° |
| 2026-04-18 02:34 | 57.76157 | 7.73708 | 36182 ft | 399 kts | 213° |
| 2026-04-18 02:35 | 57.71442 | 7.68329 | 36185 ft | 398 kts | 213° |
| 2026-04-18 02:35 | 57.66708 | 7.62945 | 36170 ft | 397 kts | 213° |
| 2026-04-18 02:36 | 57.61980 | 7.57584 | 36174 ft | 396 kts | 213° |
| 2026-04-18 02:36 | 57.57266 | 7.52257 | 36173 ft | 396 kts | 213° |
| 2026-04-18 02:37 | 57.52555 | 7.46948 | 36175 ft | 395 kts | 213° |
| 2026-04-18 02:37 | 57.47877 | 7.41692 | 36171 ft | 395 kts | 213° |
| 2026-04-18 02:38 | 57.43154 | 7.36402 | 36158 ft | 395 kts | 213° |
| 2026-04-18 02:38 | 57.38440 | 7.31138 | 36169 ft | 395 kts | 213° |
| 2026-04-18 02:39 | 57.33713 | 7.25875 | 36171 ft | 396 kts | 213° |
| 2026-04-18 02:39 | 57.29014 | 7.20660 | 36169 ft | 397 kts | 213° |
| 2026-04-18 02:40 | 57.24275 | 7.15416 | 36166 ft | 397 kts | 213° |
| 2026-04-18 02:40 | 57.19527 | 7.10176 | 36163 ft | 398 kts | 212° |
| 2026-04-18 02:41 | 57.14765 | 7.04941 | 36150 ft | 397 kts | 213° |
| 2026-04-18 02:41 | 57.10016 | 6.99735 | 36156 ft | 397 kts | 213° |
| 2026-04-18 02:42 | 57.05295 | 6.94573 | 36160 ft | 396 kts | 213° |
| 2026-04-18 02:42 | 57.00554 | 6.89406 | 36156 ft | 396 kts | 213° |
| 2026-04-18 02:43 | 56.95819 | 6.84260 | 36157 ft | 395 kts | 212° |
| 2026-04-18 02:43 | 56.91074 | 6.79120 | 36140 ft | 394 kts | 213° |
| 2026-04-18 02:44 | 56.86381 | 6.74050 | 36151 ft | 394 kts | 213° |
| 2026-04-18 02:44 | 56.81664 | 6.68969 | 36149 ft | 393 kts | 213° |
| 2026-04-18 02:45 | 56.76938 | 6.63894 | 36149 ft | 393 kts | 212° |
| 2026-04-18 02:45 | 56.72245 | 6.58869 | 36150 ft | 393 kts | 212° |
| 2026-04-18 02:46 | 56.67525 | 6.53831 | 36151 ft | 393 kts | 212° |
| 2026-04-18 02:46 | 56.62807 | 6.48808 | 36137 ft | 393 kts | 213° |
| 2026-04-18 02:47 | 56.58098 | 6.43811 | 36158 ft | 386 kts | 213° |
| 2026-04-18 02:47 | 56.55818 | 6.41401 | 36161 ft | 372 kts | 213° |
| 2026-04-18 02:47 | 56.53605 | 6.39065 | 36170 ft | 364 kts | 213° |
| 2026-04-18 02:48 | 56.49252 | 6.34465 | 36124 ft | 363 kts | 212° |
| 2026-04-18 02:48 | 56.44845 | 6.29821 | 36142 ft | 370 kts | 212° |
| 2026-04-18 02:49 | 56.40352 | 6.25103 | 36131 ft | 377 kts | 212° |
| 2026-04-18 02:49 | 56.35777 | 6.20313 | 36152 ft | 383 kts | 212° |
| 2026-04-18 02:50 | 56.31148 | 6.15481 | 36148 ft | 390 kts | 212° |
| 2026-04-18 02:50 | 56.26413 | 6.10553 | 36144 ft | 395 kts | 212° |
| 2026-04-18 02:51 | 56.21634 | 6.05594 | 36139 ft | 398 kts | 212° |
| 2026-04-18 02:51 | 56.16825 | 6.00619 | 36135 ft | 399 kts | 212° |
| 2026-04-18 02:52 | 56.12826 | 5.96492 | 36128 ft | 399 kts | 212° |
| 2026-04-18 02:52 | 56.08022 | 5.91548 | 36122 ft | 397 kts | 212° |
| 2026-04-18 02:53 | 56.03239 | 5.86640 | 36127 ft | 395 kts | 212° |
| 2026-04-18 02:53 | 55.98477 | 5.81768 | 36128 ft | 393 kts | 212° |
| 2026-04-18 02:54 | 55.93743 | 5.76936 | 36129 ft | 391 kts | 212° |
| 2026-04-18 02:54 | 55.89061 | 5.72172 | 36130 ft | 389 kts | 212° |
| 2026-04-18 02:55 | 55.84362 | 5.67404 | 36130 ft | 388 kts | 212° |
| 2026-04-18 02:55 | 55.79678 | 5.62663 | 36139 ft | 387 kts | 212° |
| 2026-04-18 02:56 | 55.74987 | 5.57930 | 36136 ft | 388 kts | 211° |
| 2026-04-18 02:56 | 55.67930 | 5.50833 | 36129 ft | 389 kts | 211° |
| 2026-04-18 02:57 | 55.63215 | 5.46108 | 36122 ft | 389 kts | 211° |
| 2026-04-18 02:57 | 55.58492 | 5.41389 | 36128 ft | 390 kts | 211° |
| 2026-04-18 02:58 | 55.53753 | 5.36667 | 36128 ft | 391 kts | 211° |
| 2026-04-18 02:58 | 55.49043 | 5.31987 | 36128 ft | 391 kts | 211° |
| 2026-04-18 02:59 | 55.44291 | 5.27278 | 36129 ft | 392 kts | 211° |
| 2026-04-18 02:59 | 55.39527 | 5.22571 | 36112 ft | 392 kts | 211° |
| 2026-04-18 03:00 | 55.34760 | 5.17873 | 36129 ft | 392 kts | 211° |
| 2026-04-18 03:00 | 55.29993 | 5.13188 | 36133 ft | 392 kts | 211° |
| 2026-04-18 03:01 | 55.25222 | 5.08514 | 36130 ft | 392 kts | 211° |
| 2026-04-18 03:01 | 55.20486 | 5.03885 | 36128 ft | 392 kts | 211° |
| 2026-04-18 03:02 | 55.15725 | 4.99246 | 36110 ft | 392 kts | 211° |
| 2026-04-18 03:02 | 55.10956 | 4.94611 | 36124 ft | 391 kts | 211° |
| 2026-04-18 03:03 | 55.06194 | 4.89995 | 36142 ft | 391 kts | 211° |
| 2026-04-18 03:03 | 55.01436 | 4.85397 | 36121 ft | 391 kts | 211° |
| 2026-04-18 03:04 | 54.96708 | 4.80840 | 36125 ft | 390 kts | 211° |
| 2026-04-18 03:04 | 54.91954 | 4.76270 | 36129 ft | 390 kts | 211° |
| 2026-04-18 03:05 | 54.87199 | 4.71711 | 36114 ft | 390 kts | 211° |
| 2026-04-18 03:05 | 54.82454 | 4.67175 | 36112 ft | 389 kts | 211° |
| 2026-04-18 03:06 | 54.77736 | 4.62676 | 36119 ft | 389 kts | 211° |
| 2026-04-18 03:06 | 54.72983 | 4.58157 | 36121 ft | 390 kts | 211° |
| 2026-04-18 03:07 | 54.68226 | 4.53645 | 36125 ft | 390 kts | 211° |
| 2026-04-18 03:07 | 54.63471 | 4.49147 | 36111 ft | 390 kts | 211° |
| 2026-04-18 03:08 | 54.58707 | 4.44654 | 36122 ft | 390 kts | 211° |
| 2026-04-18 03:08 | 54.53947 | 4.40176 | 36121 ft | 390 kts | 211° |
| 2026-04-18 03:09 | 54.49205 | 4.35726 | 36124 ft | 390 kts | 211° |
| 2026-04-18 03:09 | 54.44428 | 4.31256 | 36128 ft | 391 kts | 211° |
| 2026-04-18 03:10 | 54.39647 | 4.26795 | 36152 ft | 390 kts | 211° |
| 2026-04-18 03:10 | 54.34864 | 4.22343 | 36138 ft | 391 kts | 211° |
| 2026-04-18 03:11 | 54.30076 | 4.17899 | 36128 ft | 391 kts | 211° |
| 2026-04-18 03:11 | 54.25319 | 4.13496 | 36137 ft | 391 kts | 211° |
| 2026-04-18 03:12 | 54.20542 | 4.09085 | 36130 ft | 390 kts | 211° |
| 2026-04-18 03:12 | 54.15762 | 4.04683 | 36118 ft | 389 kts | 211° |
| 2026-04-18 03:13 | 54.10993 | 4.00303 | 36126 ft | 389 kts | 211° |
| 2026-04-18 03:13 | 54.06226 | 3.95936 | 36133 ft | 389 kts | 211° |
| 2026-04-18 03:14 | 54.01458 | 3.91579 | 36133 ft | 389 kts | 211° |
| 2026-04-18 03:14 | 53.96688 | 3.87233 | 36132 ft | 389 kts | 211° |
| 2026-04-18 03:15 | 53.91943 | 3.82920 | 36116 ft | 389 kts | 211° |
| 2026-04-18 03:15 | 53.87162 | 3.78586 | 36131 ft | 389 kts | 211° |
| 2026-04-18 03:16 | 53.82405 | 3.74285 | 36136 ft | 389 kts | 211° |
| 2026-04-18 03:16 | 53.77614 | 3.69964 | 36134 ft | 390 kts | 211° |
| 2026-04-18 03:17 | 53.72819 | 3.65651 | 36132 ft | 391 kts | 211° |
| 2026-04-18 03:17 | 53.68011 | 3.61338 | 36110 ft | 392 kts | 211° |
| 2026-04-18 03:18 | 53.63198 | 3.57032 | 36125 ft | 392 kts | 211° |
| 2026-04-18 03:18 | 53.58413 | 3.52762 | 36136 ft | 391 kts | 211° |
| 2026-04-18 03:19 | 53.53595 | 3.48473 | 36130 ft | 391 kts | 211° |
| 2026-04-18 03:19 | 53.48782 | 3.44200 | 36133 ft | 390 kts | 211° |
| 2026-04-18 03:20 | 53.43986 | 3.39953 | 36132 ft | 390 kts | 211° |
| 2026-04-18 03:20 | 53.39188 | 3.35715 | 36133 ft | 389 kts | 211° |
| 2026-04-18 03:21 | 53.34420 | 3.31514 | 36134 ft | 389 kts | 210° |
| 2026-04-18 03:21 | 53.29630 | 3.27305 | 36122 ft | 388 kts | 210° |
| 2026-04-18 03:22 | 53.24845 | 3.23110 | 36122 ft | 388 kts | 210° |
| 2026-04-18 03:22 | 53.20058 | 3.18924 | 36102 ft | 388 kts | 210° |
| 2026-04-18 03:23 | 53.15269 | 3.14748 | 36119 ft | 388 kts | 210° |
| 2026-04-18 03:23 | 53.10490 | 3.10591 | 36130 ft | 388 kts | 210° |
| 2026-04-18 03:24 | 53.05696 | 3.06431 | 36128 ft | 388 kts | 210° |
| 2026-04-18 03:24 | 53.00933 | 3.02308 | 36154 ft | 389 kts | 210° |
| 2026-04-18 03:25 | 52.96127 | 2.98158 | 36123 ft | 389 kts | 210° |
| 2026-04-18 03:25 | 52.91321 | 2.94020 | 36141 ft | 389 kts | 210° |
| 2026-04-18 03:26 | 52.86514 | 2.89891 | 36151 ft | 389 kts | 210° |
| 2026-04-18 03:26 | 52.81812 | 2.85865 | 35877 ft | 376 kts | 210° |
| 2026-04-18 03:27 | 52.79512 | 2.83901 | 35619 ft | 367 kts | 210° |
| 2026-04-18 03:27 | 52.77254 | 2.81972 | 35275 ft | 362 kts | 210° |
| 2026-04-18 03:27 | 52.75021 | 2.80066 | 34879 ft | 359 kts | 210° |
| 2026-04-18 03:27 | 52.72813 | 2.78183 | 34506 ft | 355 kts | 210° |
| 2026-04-18 03:28 | 52.70628 | 2.76322 | 34140 ft | 351 kts | 210° |
| 2026-04-18 03:28 | 52.68463 | 2.74481 | 33728 ft | 348 kts | 210° |
| 2026-04-18 03:28 | 52.66322 | 2.72661 | 33361 ft | 343 kts | 210° |
| 2026-04-18 03:28 | 52.64212 | 2.70870 | 32989 ft | 339 kts | 210° |
| 2026-04-18 03:29 | 52.62125 | 2.69101 | 32635 ft | 336 kts | 210° |
| 2026-04-18 03:29 | 52.60057 | 2.67350 | 32287 ft | 332 kts | 210° |
| 2026-04-18 03:29 | 52.58037 | 2.65640 | 31927 ft | 329 kts | 210° |
| 2026-04-18 03:29 | 52.56004 | 2.63921 | 31568 ft | 326 kts | 210° |
| 2026-04-18 03:30 | 52.53997 | 2.62225 | 31226 ft | 323 kts | 210° |
| 2026-04-18 03:30 | 52.52003 | 2.60542 | 30883 ft | 321 kts | 210° |
| 2026-04-18 03:30 | 52.50008 | 2.58861 | 30541 ft | 325 kts | 210° |
| 2026-04-18 03:30 | 52.47988 | 2.57160 | 30171 ft | 327 kts | 210° |
| 2026-04-18 03:31 | 52.45983 | 2.55505 | 30050 ft | 318 kts | 209° |
| 2026-04-18 03:31 | 52.44002 | 2.53896 | 29913 ft | 320 kts | 209° |
| 2026-04-18 03:31 | 52.41986 | 2.52263 | 29802 ft | 326 kts | 209° |
| 2026-04-18 03:31 | 52.39938 | 2.50606 | 29677 ft | 329 kts | 209° |
| 2026-04-18 03:32 | 52.37892 | 2.48952 | 29542 ft | 327 kts | 209° |
| 2026-04-18 03:32 | 52.35861 | 2.47311 | 29455 ft | 325 kts | 209° |
| 2026-04-18 03:32 | 52.33867 | 2.45700 | 29332 ft | 323 kts | 209° |
| 2026-04-18 03:32 | 52.31859 | 2.44079 | 29203 ft | 321 kts | 209° |
| 2026-04-18 03:33 | 52.29860 | 2.42465 | 29081 ft | 320 kts | 209° |
| 2026-04-18 03:33 | 52.27867 | 2.40857 | 28966 ft | 318 kts | 209° |
| 2026-04-18 03:33 | 52.25887 | 2.39261 | 28832 ft | 317 kts | 209° |
| 2026-04-18 03:33 | 52.23909 | 2.37669 | 28736 ft | 316 kts | 210° |
| 2026-04-18 03:34 | 52.21932 | 2.36078 | 28620 ft | 317 kts | 210° |
| 2026-04-18 03:34 | 52.19951 | 2.34485 | 28505 ft | 318 kts | 210° |
| 2026-04-18 03:34 | 52.17964 | 2.32888 | 28395 ft | 319 kts | 210° |
| 2026-04-18 03:34 | 52.15974 | 2.31292 | 28282 ft | 320 kts | 209° |
| 2026-04-18 03:35 | 52.13970 | 2.29687 | 28171 ft | 321 kts | 209° |
| 2026-04-18 03:35 | 52.11962 | 2.28078 | 28053 ft | 322 kts | 210° |
| 2026-04-18 03:35 | 52.10104 | 2.26083 | 27919 ft | 319 kts | 223° |
| 2026-04-18 03:35 | 52.08567 | 2.23482 | 27830 ft | 319 kts | 228° |
| 2026-04-18 03:36 | 52.07111 | 2.20774 | 27710 ft | 319 kts | 229° |
| 2026-04-18 03:36 | 52.05665 | 2.18039 | 27589 ft | 318 kts | 229° |
| 2026-04-18 03:36 | 52.04242 | 2.15350 | 27475 ft | 318 kts | 229° |
| 2026-04-18 03:36 | 52.02796 | 2.12633 | 27361 ft | 317 kts | 229° |
| 2026-04-18 03:37 | 52.01353 | 2.09939 | 27227 ft | 316 kts | 229° |
| 2026-04-18 03:37 | 51.99911 | 2.07257 | 27122 ft | 314 kts | 229° |
| 2026-04-18 03:37 | 51.98471 | 2.04590 | 27018 ft | 313 kts | 229° |
| 2026-04-18 03:37 | 51.97034 | 2.01934 | 26904 ft | 313 kts | 229° |
| 2026-04-18 03:38 | 51.95598 | 1.99286 | 26792 ft | 312 kts | 229° |
| 2026-04-18 03:38 | 51.94164 | 1.96645 | 26682 ft | 311 kts | 229° |
| 2026-04-18 03:38 | 51.92731 | 1.94008 | 26603 ft | 311 kts | 229° |
| 2026-04-18 03:38 | 51.91302 | 1.91384 | 26469 ft | 310 kts | 229° |
| 2026-04-18 03:39 | 51.89893 | 1.88797 | 26358 ft | 310 kts | 229° |
| 2026-04-18 03:39 | 51.88470 | 1.86188 | 26243 ft | 309 kts | 229° |
| 2026-04-18 03:39 | 51.87048 | 1.83584 | 26125 ft | 308 kts | 229° |
| 2026-04-18 03:39 | 51.85632 | 1.80994 | 26018 ft | 307 kts | 229° |
| 2026-04-18 03:40 | 51.84217 | 1.78408 | 25905 ft | 306 kts | 229° |
| 2026-04-18 03:40 | 51.82807 | 1.75832 | 25788 ft | 306 kts | 229° |
| 2026-04-18 03:40 | 51.81396 | 1.73258 | 25685 ft | 305 kts | 229° |
| 2026-04-18 03:40 | 51.79991 | 1.70696 | 25581 ft | 305 kts | 229° |
| 2026-04-18 03:41 | 51.79057 | 1.68994 | 25477 ft | 304 kts | 229° |
| 2026-04-18 03:41 | 51.77652 | 1.66441 | 25382 ft | 304 kts | 229° |
| 2026-04-18 03:41 | 51.76248 | 1.63889 | 25270 ft | 304 kts | 230° |
| 2026-04-18 03:41 | 51.75122 | 1.61016 | 25132 ft | 306 kts | 244° |
| 2026-04-18 03:42 | 51.74493 | 1.57663 | 24652 ft | 319 kts | 257° |
| 2026-04-18 03:42 | 51.74209 | 1.54103 | 24224 ft | 321 kts | 259° |
| 2026-04-18 03:42 | 51.73991 | 1.50502 | 23746 ft | 322 kts | 260° |
| 2026-04-18 03:42 | 51.73788 | 1.46932 | 23184 ft | 316 kts | 260° |
| 2026-04-18 03:43 | 51.73585 | 1.43432 | 22712 ft | 310 kts | 260° |
| 2026-04-18 03:43 | 51.73378 | 1.39995 | 22220 ft | 304 kts | 259° |
| 2026-04-18 03:43 | 51.73166 | 1.36597 | 21785 ft | 304 kts | 259° |
| 2026-04-18 03:43 | 51.72947 | 1.33186 | 21322 ft | 306 kts | 259° |
| 2026-04-18 03:44 | 51.72724 | 1.29775 | 20866 ft | 307 kts | 260° |
| 2026-04-18 03:44 | 51.72499 | 1.26347 | 20410 ft | 308 kts | 260° |
| 2026-04-18 03:44 | 51.72274 | 1.22949 | 19952 ft | 309 kts | 260° |
| 2026-04-18 03:44 | 51.72044 | 1.19498 | 19493 ft | 307 kts | 260° |
| 2026-04-18 03:45 | 51.71818 | 1.16098 | 19038 ft | 302 kts | 260° |
| 2026-04-18 03:45 | 51.71594 | 1.12745 | 18592 ft | 298 kts | 260° |
| 2026-04-18 03:45 | 51.71372 | 1.09453 | 18110 ft | 293 kts | 260° |
| 2026-04-18 03:45 | 51.71154 | 1.06215 | 17658 ft | 288 kts | 261° |
| 2026-04-18 03:46 | 51.70937 | 1.03019 | 17196 ft | 284 kts | 260° |
| 2026-04-18 03:46 | 51.70721 | 0.99874 | 16771 ft | 281 kts | 260° |
| 2026-04-18 03:46 | 51.70506 | 0.96744 | 16376 ft | 281 kts | 261° |
| 2026-04-18 03:46 | 51.70287 | 0.93590 | 16002 ft | 285 kts | 261° |
| 2026-04-18 03:47 | 51.70067 | 0.90424 | 15646 ft | 285 kts | 261° |
| 2026-04-18 03:47 | 51.69846 | 0.87240 | 15287 ft | 285 kts | 261° |
| 2026-04-18 03:47 | 51.69624 | 0.84069 | 14933 ft | 285 kts | 261° |
| 2026-04-18 03:47 | 51.69406 | 0.80941 | 14585 ft | 282 kts | 261° |
| 2026-04-18 03:48 | 51.69188 | 0.77821 | 14230 ft | 277 kts | 261° |
| 2026-04-18 03:48 | 51.68973 | 0.74768 | 13877 ft | 274 kts | 261° |
| 2026-04-18 03:48 | 51.68755 | 0.71699 | 13524 ft | 276 kts | 261° |
| 2026-04-18 03:48 | 51.68535 | 0.68611 | 13161 ft | 279 kts | 261° |
| 2026-04-18 03:49 | 51.68312 | 0.65493 | 12809 ft | 279 kts | 261° |
| 2026-04-18 03:49 | 51.68088 | 0.62380 | 12455 ft | 279 kts | 261° |
| 2026-04-18 03:49 | 51.67866 | 0.59277 | 12105 ft | 279 kts | 260° |
| 2026-04-18 03:49 | 51.67643 | 0.56179 | 11763 ft | 278 kts | 260° |
| 2026-04-18 03:50 | 51.67418 | 0.53082 | 11424 ft | 278 kts | 260° |
| 2026-04-18 03:50 | 51.67195 | 0.50023 | 11081 ft | 278 kts | 260° |
| 2026-04-18 03:50 | 51.66967 | 0.46919 | 10751 ft | 278 kts | 261° |
| 2026-04-18 03:50 | 51.66739 | 0.43815 | 10403 ft | 279 kts | 261° |
| 2026-04-18 03:51 | 51.66511 | 0.40716 | 10094 ft | 278 kts | 261° |
| 2026-04-18 03:51 | 51.66290 | 0.37705 | 10105 ft | 262 kts | 261° |
| 2026-04-18 03:51 | 51.66082 | 0.34868 | 9954 ft | 250 kts | 260° |
| 2026-04-18 03:51 | 51.65876 | 0.32104 | 9532 ft | 248 kts | 260° |
| 2026-04-18 03:52 | 51.65671 | 0.29357 | 9111 ft | 246 kts | 260° |
| 2026-04-18 03:52 | 51.65469 | 0.26650 | 8837 ft | 239 kts | 260° |
| 2026-04-18 03:52 | 51.65277 | 0.24078 | 8639 ft | 229 kts | 260° |
| 2026-04-18 03:52 | 51.65093 | 0.21613 | 8563 ft | 213 kts | 260° |
| 2026-04-18 03:53 | 51.64922 | 0.19337 | 8437 ft | 197 kts | 259° |
| 2026-04-18 03:53 | 51.64758 | 0.17176 | 8117 ft | 192 kts | 259° |
| 2026-04-18 03:53 | 51.64603 | 0.15063 | 7743 ft | 191 kts | 262° |
| 2026-04-18 03:53 | 51.64625 | 0.12914 | 7391 ft | 192 kts | 269° |
| 2026-04-18 03:54 | 51.64709 | 0.10766 | 7236 ft | 193 kts | 269° |
| 2026-04-18 03:54 | 51.64794 | 0.08608 | 7205 ft | 191 kts | 269° |
| 2026-04-18 03:54 | 51.64875 | 0.06504 | 7192 ft | 185 kts | 269° |
| 2026-04-18 03:54 | 51.64950 | 0.04472 | 7182 ft | 184 kts | 268° |
| 2026-04-18 03:55 | 51.65023 | 0.02416 | 7186 ft | 185 kts | 268° |
| 2026-04-18 03:55 | 51.65095 | 0.00336 | 7189 ft | 186 kts | 268° |
| 2026-04-18 03:55 | 51.65165 | -0.01746 | 7156 ft | 187 kts | 269° |
| 2026-04-18 03:55 | 51.65236 | -0.03833 | 7151 ft | 187 kts | 269° |
| 2026-04-18 03:56 | 51.65305 | -0.05926 | 7138 ft | 187 kts | 268° |
| 2026-04-18 03:56 | 51.65373 | -0.08020 | 7137 ft | 187 kts | 268° |
| 2026-04-18 03:56 | 51.65440 | -0.10066 | 7128 ft | 178 kts | 268° |
| 2026-04-18 03:56 | 51.65503 | -0.12007 | 7117 ft | 170 kts | 268° |
| 2026-04-18 03:57 | 51.65397 | -0.15750 | 6980 ft | 169 kts | 239° |
| 2026-04-18 03:57 | 51.64613 | -0.17113 | 6870 ft | 170 kts | 212° |
| 2026-04-18 03:57 | 51.63562 | -0.17973 | 6790 ft | 168 kts | 211° |
| 2026-04-18 03:58 | 51.62512 | -0.18829 | 6658 ft | 169 kts | 211° |
| 2026-04-18 03:58 | 51.61445 | -0.19693 | 6360 ft | 174 kts | 210° |
| 2026-04-18 03:58 | 51.60379 | -0.20548 | 6182 ft | 169 kts | 211° |
| 2026-04-18 03:58 | 51.59305 | -0.21255 | 6024 ft | 170 kts | 191° |
| 2026-04-18 03:59 | 51.58097 | -0.21084 | 5875 ft | 184 kts | 171° |
| 2026-04-18 03:59 | 51.56914 | -0.20105 | 5643 ft | 199 kts | 147° |
| 2026-04-18 03:59 | 51.56002 | -0.18406 | 5364 ft | 202 kts | 132° |
| 2026-04-18 03:59 | 51.55180 | -0.16614 | 5073 ft | 200 kts | 132° |
| 2026-04-18 04:00 | 51.54355 | -0.14824 | 4762 ft | 196 kts | 132° |
| 2026-04-18 04:00 | 51.53504 | -0.13183 | 4468 ft | 189 kts | 149° |
| 2026-04-18 04:00 | 51.52341 | -0.12618 | 4268 ft | 171 kts | 190° |
| 2026-04-18 04:00 | 51.51223 | -0.13204 | 4040 ft | 171 kts | 216° |
| 2026-04-18 04:01 | 51.50252 | -0.14335 | 3802 ft | 174 kts | 221° |
| 2026-04-18 04:01 | 51.49208 | -0.15263 | 3529 ft | 170 kts | 202° |
| 2026-04-18 04:01 | 51.48122 | -0.15865 | 3269 ft | 162 kts | 204° |
| 2026-04-18 04:01 | 51.47135 | -0.16620 | 3046 ft | 151 kts | 226° |
| 2026-04-18 04:02 | 51.46813 | -0.18086 | 2934 ft | 142 kts | 270° |
| 2026-04-18 04:02 | 51.46770 | -0.19706 | 2755 ft | 145 kts | 266° |
| 2026-04-18 04:02 | 51.46716 | -0.21323 | 2615 ft | 145 kts | 268° |
| 2026-04-18 04:02 | 51.46687 | -0.22934 | 2521 ft | 144 kts | 269° |
| 2026-04-18 04:03 | 51.46668 | -0.24524 | 2462 ft | 141 kts | 269° |
| 2026-04-18 04:03 | 51.46652 | -0.26093 | 2281 ft | 140 kts | 270° |
| 2026-04-18 04:03 | 51.46639 | -0.27641 | 2094 ft | 138 kts | 270° |
| 2026-04-18 04:03 | 51.46625 | -0.29179 | 1910 ft | 138 kts | 270° |
| 2026-04-18 04:04 | 51.46563 | -0.30710 | 1726 ft | 139 kts | 266° |
| 2026-04-18 04:04 | 51.46519 | -0.32252 | 1553 ft | 139 kts | 270° |
| 2026-04-18 04:04 | 51.46518 | -0.33810 | 1360 ft | 141 kts | 270° |
| 2026-04-18 04:04 | 51.46513 | -0.35382 | 1128 ft | 141 kts | 270° |
| 2026-04-18 04:05 | 51.46506 | -0.36969 | 858 ft | 143 kts | 270° |
| 2026-04-18 04:05 | 51.46502 | -0.38574 | 660 ft | 145 kts | 270° |
| 2026-04-18 04:05 | 51.46495 | -0.40189 | 457 ft | 146 kts | 271° |
| 2026-04-18 04:05 | 51.46502 | -0.41791 | 304 ft | 140 kts | 271° |
| 2026-04-18 04:06 | 51.46495 | -0.43349 | 121 ft | 138 kts | 270° |
| 2026-04-18 04:06 | 51.46493 | -0.44735 | 88 ft | 99 kts | 270° |
| 2026-04-18 04:06 | 51.46490 | -0.45496 | 83 ft | 45 kts | 270° |
| 2026-04-18 04:06 | 51.46507 | -0.45778 | 83 ft | 19 kts | 300° |
| 2026-04-18 04:07 | 51.46595 | -0.45895 | 82 ft | 10 kts | 327° |
| 2026-04-18 04:07 | 51.46604 | -0.45904 | 82 ft | 0 kts | 328° |
| 2026-04-18 04:08 | 51.46609 | -0.45908 | 81 ft | 4 kts | 328° |
| 2026-04-18 04:08 | 51.46661 | -0.45962 | 85 ft | 12 kts | 331° |
| 2026-04-18 04:09 | 51.46735 | -0.46007 | 87 ft | 13 kts | 316° |
| 2026-04-18 04:09 | 51.46747 | -0.46167 | 88 ft | 17 kts | 270° |
| 2026-04-18 04:09 | 51.46748 | -0.46287 | 88 ft | 10 kts | 271° |
| 2026-04-18 04:09 | 51.46758 | -0.46397 | 85 ft | 6 kts | 300° |
| 2026-04-18 04:10 | 51.46799 | -0.46451 | 85 ft | 9 kts | 326° |
| 2026-04-18 04:10 | 51.46839 | -0.46495 | 85 ft | 3 kts | 325° |
| 2026-04-18 04:10 | 51.46871 | -0.46491 | 84 ft | 7 kts | 39° |
| 2026-04-18 04:10 | 51.46895 | -0.46436 | 86 ft | 5 kts | 57° |
| 2026-04-18 04:11 | 51.46904 | -0.46415 | 88 ft | 1 kts | 56° |
| 2026-04-18 04:11 | 51.46905 | -0.46413 | 87 ft | 0 kts | 56° |